sensor_id;sensor_type;location;lat;lon;timestamp;pressure;altitude;pressure_sealevel;temperature;humidity
73566;BME280;61846;52.970;-3.168;2023-08-31T00:01:58;100052.74;;;14.78;48.02
73566;BME280;61846;52.970;-3.168;2023-08-31T00:04:23;100049.47;;;15.22;48.21
73566;BME280;61846;52.970;-3.168;2023-08-31T00:06:48;100049.59;;;15.34;48.05
73566;BME280;61846;52.970;-3.168;2023-08-31T00:09:14;100045.98;;;15.49;47.94
73566;BME280;61846;52.970;-3.168;2023-08-31T00:11:39;100045.09;;;15.53;47.76
73566;BME280;61846;52.970;-3.168;2023-08-31T00:14:05;100039.77;;;15.69;47.43
73566;BME280;61846;52.970;-3.168;2023-08-31T00:16:30;100035.61;;;15.52;47.58
73566;BME280;61846;52.970;-3.168;2023-08-31T00:18:56;100034.13;;;14.32;49.49
73566;BME280;61846;52.970;-3.168;2023-08-31T00:21:21;100033.07;;;14.50;49.47
73566;BME280;61846;52.970;-3.168;2023-08-31T00:23:47;100029.03;;;15.56;47.15
73566;BME280;61846;52.970;-3.168;2023-08-31T00:26:12;100027.18;;;15.71;46.98
73566;BME280;61846;52.970;-3.168;2023-08-31T00:28:38;100028.80;;;15.10;48.71
73566;BME280;61846;52.970;-3.168;2023-08-31T00:31:03;100033.33;;;14.79;48.46
73566;BME280;61846;52.970;-3.168;2023-08-31T00:33:28;100033.69;;;15.89;47.27
73566;BME280;61846;52.970;-3.168;2023-08-31T00:35:54;100036.21;;;15.66;47.24
73566;BME280;61846;52.970;-3.168;2023-08-31T00:38:19;100035.88;;;15.66;47.12
73566;BME280;61846;52.970;-3.168;2023-08-31T00:40:45;100036.64;;;15.88;46.77
73566;BME280;61846;52.970;-3.168;2023-08-31T00:43:10;100034.01;;;15.50;47.02
73566;BME280;61846;52.970;-3.168;2023-08-31T00:45:37;100031.02;;;15.39;47.56
73566;BME280;61846;52.970;-3.168;2023-08-31T00:48:01;100032.16;;;15.25;47.70
73566;BME280;61846;52.970;-3.168;2023-08-31T00:50:27;100033.84;;;15.47;47.80
73566;BME280;61846;52.970;-3.168;2023-08-31T00:52:52;100035.27;;;15.01;48.82
73566;BME280;61846;52.970;-3.168;2023-08-31T00:55:18;100036.33;;;15.33;48.07
73566;BME280;61846;52.970;-3.168;2023-08-31T00:57:43;100037.21;;;15.07;48.26
73566;BME280;61846;52.970;-3.168;2023-08-31T01:00:09;100035.39;;;15.18;47.68
73566;BME280;61846;52.970;-3.168;2023-08-31T01:02:40;100032.05;;;15.73;47.02
73566;BME280;61846;52.970;-3.168;2023-08-31T01:05:05;100028.40;;;15.68;46.75
73566;BME280;61846;52.970;-3.168;2023-08-31T01:07:33;100026.60;;;15.46;47.14
73566;BME280;61846;52.970;-3.168;2023-08-31T01:09:54;100025.95;;;15.28;47.06
73566;BME280;61846;52.970;-3.168;2023-08-31T01:12:20;100020.32;;;15.86;45.86
73566;BME280;61846;52.970;-3.168;2023-08-31T01:14:44;100016.58;;;15.76;45.46
73566;BME280;61846;52.970;-3.168;2023-08-31T01:17:08;100017.97;;;15.82;45.32
73566;BME280;61846;52.970;-3.168;2023-08-31T01:19:44;100015.57;;;15.63;45.54
73566;BME280;61846;52.970;-3.168;2023-08-31T01:22:00;100015.63;;;15.71;45.47
73566;BME280;61846;52.970;-3.168;2023-08-31T01:24:23;100013.89;;;15.90;45.85
73566;BME280;61846;52.970;-3.168;2023-08-31T01:26:49;100009.57;;;15.54;45.78
73566;BME280;61846;52.970;-3.168;2023-08-31T01:29:14;100006.30;;;15.50;46.27
73566;BME280;61846;52.970;-3.168;2023-08-31T01:31:43;100004.82;;;15.07;46.58
73566;BME280;61846;52.970;-3.168;2023-08-31T01:34:05;100007.97;;;15.41;46.07
73566;BME280;61846;52.970;-3.168;2023-08-31T01:36:35;100008.66;;;15.56;46.19
73566;BME280;61846;52.970;-3.168;2023-08-31T01:39:03;100009.49;;;15.27;46.38
73566;BME280;61846;52.970;-3.168;2023-08-31T01:41:22;100007.25;;;15.59;46.27
73566;BME280;61846;52.970;-3.168;2023-08-31T01:43:48;100008.96;;;15.42;46.69
73566;BME280;61846;52.970;-3.168;2023-08-31T01:46:13;100006.77;;;15.21;47.42
73566;BME280;61846;52.970;-3.168;2023-08-31T01:48:39;100006.57;;;15.23;47.05
73566;BME280;61846;52.970;-3.168;2023-08-31T01:51:04;100006.95;;;15.53;46.37
73566;BME280;61846;52.970;-3.168;2023-08-31T01:53:29;100009.78;;;15.18;47.96
73566;BME280;61846;52.970;-3.168;2023-08-31T01:55:55;100016.28;;;15.06;47.33
73566;BME280;61846;52.970;-3.168;2023-08-31T01:58:20;100014.40;;;15.33;46.69
73566;BME280;61846;52.970;-3.168;2023-08-31T02:00:46;100013.27;;;15.41;46.32
73566;BME280;61846;52.970;-3.168;2023-08-31T02:03:11;100009.88;;;15.60;46.49
73566;BME280;61846;52.970;-3.168;2023-08-31T02:05:37;100005.75;;;15.87;46.10
73566;BME280;61846;52.970;-3.168;2023-08-31T02:08:02;100010.58;;;14.63;48.43
73566;BME280;61846;52.970;-3.168;2023-08-31T02:10:28;100008.72;;;15.05;47.05
73566;BME280;61846;52.970;-3.168;2023-08-31T02:12:53;100003.55;;;15.33;47.01
73566;BME280;61846;52.970;-3.168;2023-08-31T02:15:19;99998.93;;;15.08;47.36
73566;BME280;61846;52.970;-3.168;2023-08-31T02:17:44;99995.35;;;14.63;47.88
73566;BME280;61846;52.970;-3.168;2023-08-31T02:20:10;99993.08;;;15.34;46.64
73566;BME280;61846;52.970;-3.168;2023-08-31T02:22:35;99993.18;;;15.47;46.39
73566;BME280;61846;52.970;-3.168;2023-08-31T02:25:00;99992.46;;;15.55;45.92
73566;BME280;61846;52.970;-3.168;2023-08-31T02:27:26;99994.14;;;15.49;46.33
73566;BME280;61846;52.970;-3.168;2023-08-31T02:29:51;99994.83;;;15.33;46.89
73566;BME280;61846;52.970;-3.168;2023-08-31T02:32:17;99990.26;;;15.40;47.00
73566;BME280;61846;52.970;-3.168;2023-08-31T02:34:42;99992.79;;;15.12;46.23
73566;BME280;61846;52.970;-3.168;2023-08-31T02:37:07;99995.73;;;15.47;46.35
73566;BME280;61846;52.970;-3.168;2023-08-31T02:39:33;99991.35;;;15.12;47.11
73566;BME280;61846;52.970;-3.168;2023-08-31T02:41:58;99992.39;;;14.11;48.98
73566;BME280;61846;52.970;-3.168;2023-08-31T02:44:24;99990.00;;;15.21;47.20
73566;BME280;61846;52.970;-3.168;2023-08-31T02:46:49;99985.56;;;15.34;46.82
73566;BME280;61846;52.970;-3.168;2023-08-31T02:49:15;99983.66;;;15.43;46.50
73566;BME280;61846;52.970;-3.168;2023-08-31T02:51:40;99979.27;;;15.11;47.05
73566;BME280;61846;52.970;-3.168;2023-08-31T02:54:06;99977.63;;;14.73;47.50
73566;BME280;61846;52.970;-3.168;2023-08-31T02:56:31;99980.05;;;15.59;46.15
73566;BME280;61846;52.970;-3.168;2023-08-31T02:58:57;99983.60;;;14.88;47.18
73566;BME280;61846;52.970;-3.168;2023-08-31T03:01:22;99981.97;;;14.89;47.59
73566;BME280;61846;52.970;-3.168;2023-08-31T03:03:48;99980.73;;;15.70;46.56
73566;BME280;61846;52.970;-3.168;2023-08-31T03:06:13;99979.25;;;14.73;47.91
73566;BME280;61846;52.970;-3.168;2023-08-31T03:08:39;99976.96;;;15.13;48.08
73566;BME280;61846;52.970;-3.168;2023-08-31T03:11:05;99974.09;;;14.85;47.89
73566;BME280;61846;52.970;-3.168;2023-08-31T03:13:30;99975.03;;;15.31;47.60
73566;BME280;61846;52.970;-3.168;2023-08-31T03:15:55;99975.33;;;15.13;47.85
73566;BME280;61846;52.970;-3.168;2023-08-31T03:18:21;99975.37;;;14.77;48.74
73566;BME280;61846;52.970;-3.168;2023-08-31T03:20:46;99971.79;;;14.68;48.98
73566;BME280;61846;52.970;-3.168;2023-08-31T03:23:12;99965.99;;;14.99;48.06
73566;BME280;61846;52.970;-3.168;2023-08-31T03:25:38;99963.57;;;15.10;47.42
73566;BME280;61846;52.970;-3.168;2023-08-31T03:28:03;99968.06;;;14.64;48.65
73566;BME280;61846;52.970;-3.168;2023-08-31T03:30:28;99965.74;;;14.95;47.91
73566;BME280;61846;52.970;-3.168;2023-08-31T03:32:54;99960.21;;;15.41;47.94
73566;BME280;61846;52.970;-3.168;2023-08-31T03:35:19;99955.79;;;15.08;47.65
73566;BME280;61846;52.970;-3.168;2023-08-31T03:37:47;99953.95;;;15.38;47.24
73566;BME280;61846;52.970;-3.168;2023-08-31T03:40:10;99957.38;;;15.47;47.56
73566;BME280;61846;52.970;-3.168;2023-08-31T03:42:36;99955.79;;;15.41;47.58
73566;BME280;61846;52.970;-3.168;2023-08-31T03:45:01;99952.53;;;15.06;47.44
73566;BME280;61846;52.970;-3.168;2023-08-31T03:47:27;99950.63;;;15.02;48.47
73566;BME280;61846;52.970;-3.168;2023-08-31T03:49:52;99948.90;;;14.88;47.99
73566;BME280;61846;52.970;-3.168;2023-08-31T03:52:18;99946.18;;;15.10;48.20
73566;BME280;61846;52.970;-3.168;2023-08-31T03:54:43;99942.40;;;15.07;48.60
73566;BME280;61846;52.970;-3.168;2023-08-31T03:57:09;99945.15;;;14.43;49.25
73566;BME280;61846;52.970;-3.168;2023-08-31T03:59:34;99948.02;;;15.47;47.23
73566;BME280;61846;52.970;-3.168;2023-08-31T04:02:00;99950.50;;;15.55;46.99
73566;BME280;61846;52.970;-3.168;2023-08-31T04:04:25;99954.01;;;15.34;46.83
73566;BME280;61846;52.970;-3.168;2023-08-31T04:06:51;99949.02;;;15.33;47.11
73566;BME280;61846;52.970;-3.168;2023-08-31T04:09:16;99954.89;;;14.67;48.38
73566;BME280;61846;52.970;-3.168;2023-08-31T04:11:42;99954.81;;;15.37;47.13
73566;BME280;61846;52.970;-3.168;2023-08-31T04:14:07;99953.39;;;15.15;47.43
73566;BME280;61846;52.970;-3.168;2023-08-31T04:16:33;99955.52;;;15.67;47.38
73566;BME280;61846;52.970;-3.168;2023-08-31T04:18:58;99952.35;;;15.18;47.52
73566;BME280;61846;52.970;-3.168;2023-08-31T04:21:24;99945.10;;;15.35;47.12
73566;BME280;61846;52.970;-3.168;2023-08-31T04:23:49;99946.47;;;15.78;46.91
73566;BME280;61846;52.970;-3.168;2023-08-31T04:26:15;99942.47;;;15.80;46.31
73566;BME280;61846;52.970;-3.168;2023-08-31T04:28:41;99947.22;;;14.77;47.40
73566;BME280;61846;52.970;-3.168;2023-08-31T04:31:06;99952.95;;;14.72;48.67
73566;BME280;61846;52.970;-3.168;2023-08-31T04:33:33;99952.29;;;14.63;49.06
73566;BME280;61846;52.970;-3.168;2023-08-31T04:35:57;99952.71;;;16.00;47.07
73566;BME280;61846;52.970;-3.168;2023-08-31T04:38:23;99952.92;;;15.04;47.64
73566;BME280;61846;52.970;-3.168;2023-08-31T04:40:48;99951.23;;;15.74;46.97
73566;BME280;61846;52.970;-3.168;2023-08-31T04:43:13;99946.54;;;15.00;47.59
73566;BME280;61846;52.970;-3.168;2023-08-31T04:45:39;99941.57;;;15.06;48.50
73566;BME280;61846;52.970;-3.168;2023-08-31T04:48:05;99941.80;;;15.20;47.87
73566;BME280;61846;52.970;-3.168;2023-08-31T04:50:30;99936.41;;;15.49;47.32
73566;BME280;61846;52.970;-3.168;2023-08-31T04:52:56;99937.83;;;15.25;47.55
73566;BME280;61846;52.970;-3.168;2023-08-31T04:55:21;99937.81;;;15.57;47.63
73566;BME280;61846;52.970;-3.168;2023-08-31T04:57:46;99938.18;;;15.38;47.06
73566;BME280;61846;52.970;-3.168;2023-08-31T05:00:13;99939.35;;;16.02;46.82
73566;BME280;61846;52.970;-3.168;2023-08-31T05:02:38;99945.25;;;15.72;46.25
73566;BME280;61846;52.970;-3.168;2023-08-31T05:05:04;99948.06;;;15.97;46.37
73566;BME280;61846;52.970;-3.168;2023-08-31T05:07:28;99947.72;;;15.93;46.20
73566;BME280;61846;52.970;-3.168;2023-08-31T05:09:54;99945.45;;;15.29;47.12
73566;BME280;61846;52.970;-3.168;2023-08-31T05:12:19;99944.02;;;14.93;48.67
73566;BME280;61846;52.970;-3.168;2023-08-31T05:14:45;99938.25;;;15.63;46.73
73566;BME280;61846;52.970;-3.168;2023-08-31T05:17:10;99939.94;;;15.09;47.87
73566;BME280;61846;52.970;-3.168;2023-08-31T05:19:36;99935.46;;;15.51;47.17
73566;BME280;61846;52.970;-3.168;2023-08-31T05:22:02;99932.49;;;15.97;46.51
73566;BME280;61846;52.970;-3.168;2023-08-31T05:24:27;99931.02;;;15.51;47.57
73566;BME280;61846;52.970;-3.168;2023-08-31T05:26:52;99933.85;;;14.97;48.08
73566;BME280;61846;52.970;-3.168;2023-08-31T05:29:18;99931.04;;;16.00;46.70
73566;BME280;61846;52.970;-3.168;2023-08-31T05:31:43;99929.81;;;16.04;46.19
73566;BME280;61846;52.970;-3.168;2023-08-31T05:34:09;99935.86;;;16.06;46.22
73566;BME280;61846;52.970;-3.168;2023-08-31T05:36:34;99936.28;;;15.79;46.78
73566;BME280;61846;52.970;-3.168;2023-08-31T05:39:00;99935.18;;;14.83;48.43
73566;BME280;61846;52.970;-3.168;2023-08-31T05:41:25;99928.82;;;15.60;47.65
73566;BME280;61846;52.970;-3.168;2023-08-31T05:43:51;99930.13;;;15.02;49.12
73566;BME280;61846;52.970;-3.168;2023-08-31T05:46:16;99928.15;;;15.55;47.45
73566;BME280;61846;52.970;-3.168;2023-08-31T05:48:41;99925.54;;;15.16;48.22
73566;BME280;61846;52.970;-3.168;2023-08-31T05:51:07;99925.62;;;15.40;48.07
73566;BME280;61846;52.970;-3.168;2023-08-31T05:53:32;99929.32;;;15.16;49.03
73566;BME280;61846;52.970;-3.168;2023-08-31T05:55:58;99928.62;;;16.13;46.78
73566;BME280;61846;52.970;-3.168;2023-08-31T05:58:23;99930.21;;;15.91;46.93
73566;BME280;61846;52.970;-3.168;2023-08-31T06:00:49;99933.81;;;15.03;48.67
73566;BME280;61846;52.970;-3.168;2023-08-31T06:03:14;99930.95;;;14.95;48.78
73566;BME280;61846;52.970;-3.168;2023-08-31T06:05:39;99933.24;;;15.67;47.29
73566;BME280;61846;52.970;-3.168;2023-08-31T06:08:05;99926.60;;;15.51;47.48
73566;BME280;61846;52.970;-3.168;2023-08-31T06:10:30;99923.02;;;15.66;47.76
73566;BME280;61846;52.970;-3.168;2023-08-31T06:12:56;99924.64;;;15.20;48.15
73566;BME280;61846;52.970;-3.168;2023-08-31T06:15:21;99924.90;;;15.08;48.29
73566;BME280;61846;52.970;-3.168;2023-08-31T06:17:47;99929.78;;;13.80;50.36
73566;BME280;61846;52.970;-3.168;2023-08-31T06:20:12;99930.65;;;15.02;48.57
73566;BME280;61846;52.970;-3.168;2023-08-31T06:22:38;99931.47;;;15.76;47.31
73566;BME280;61846;52.970;-3.168;2023-08-31T06:25:04;99932.66;;;15.72;47.67
73566;BME280;61846;52.970;-3.168;2023-08-31T06:27:29;99937.17;;;15.09;48.59
73566;BME280;61846;52.970;-3.168;2023-08-31T06:29:54;99941.61;;;14.69;50.15
73566;BME280;61846;52.970;-3.168;2023-08-31T06:32:20;99948.12;;;13.95;51.57
73566;BME280;61846;52.970;-3.168;2023-08-31T06:34:46;99946.12;;;15.65;48.84
73566;BME280;61846;52.970;-3.168;2023-08-31T06:37:11;99949.34;;;15.53;48.26
73566;BME280;61846;52.970;-3.168;2023-08-31T06:39:37;99954.36;;;14.89;49.02
73566;BME280;61846;52.970;-3.168;2023-08-31T06:42:02;99951.65;;;15.87;47.45
73566;BME280;61846;52.970;-3.168;2023-08-31T06:44:27;99952.12;;;15.46;48.10
73566;BME280;61846;52.970;-3.168;2023-08-31T06:46:53;99952.42;;;15.83;46.37
73566;BME280;61846;52.970;-3.168;2023-08-31T06:49:19;99953.55;;;16.03;46.68
73566;BME280;61846;52.970;-3.168;2023-08-31T06:51:44;99952.98;;;15.73;47.47
73566;BME280;61846;52.970;-3.168;2023-08-31T06:54:09;99953.42;;;14.44;50.11
73566;BME280;61846;52.970;-3.168;2023-08-31T06:56:35;99953.70;;;15.02;49.72
73566;BME280;61846;52.970;-3.168;2023-08-31T06:59:00;99949.75;;;15.59;48.67
73566;BME280;61846;52.970;-3.168;2023-08-31T07:01:26;99948.73;;;15.98;47.77
73566;BME280;61846;52.970;-3.168;2023-08-31T07:03:51;99945.82;;;15.83;46.37
73566;BME280;61846;52.970;-3.168;2023-08-31T07:06:17;99944.66;;;15.97;46.38
73566;BME280;61846;52.970;-3.168;2023-08-31T07:08:42;99944.73;;;16.01;46.25
73566;BME280;61846;52.970;-3.168;2023-08-31T07:11:07;99945.41;;;15.87;47.62
73566;BME280;61846;52.970;-3.168;2023-08-31T07:13:33;99942.10;;;16.27;46.96
73566;BME280;61846;52.970;-3.168;2023-08-31T07:15:59;99941.41;;;14.82;49.23
73566;BME280;61846;52.970;-3.168;2023-08-31T07:18:24;99939.72;;;16.25;48.05
73566;BME280;61846;52.970;-3.168;2023-08-31T07:20:49;99937.52;;;15.46;48.78
73566;BME280;61846;52.970;-3.168;2023-08-31T07:23:15;99935.07;;;15.81;47.58
73566;BME280;61846;52.970;-3.168;2023-08-31T07:25:40;99930.20;;;16.11;46.80
73566;BME280;61846;52.970;-3.168;2023-08-31T07:28:06;99930.58;;;16.13;46.89
73566;BME280;61846;52.970;-3.168;2023-08-31T07:30:31;99928.90;;;15.96;47.71
73566;BME280;61846;52.970;-3.168;2023-08-31T07:32:57;99927.79;;;15.62;47.63
73566;BME280;61846;52.970;-3.168;2023-08-31T07:35:22;99925.48;;;16.05;47.53
73566;BME280;61846;52.970;-3.168;2023-08-31T07:37:48;99924.35;;;15.46;48.31
73566;BME280;61846;52.970;-3.168;2023-08-31T07:40:13;99922.05;;;15.70;48.52
73566;BME280;61846;52.970;-3.168;2023-08-31T07:42:39;99923.71;;;15.41;49.75
73566;BME280;61846;52.970;-3.168;2023-08-31T07:45:05;99918.09;;;15.45;49.01
73566;BME280;61846;52.970;-3.168;2023-08-31T07:47:29;99914.78;;;15.48;49.60
73566;BME280;61846;52.970;-3.168;2023-08-31T07:49:55;99915.21;;;15.59;49.54
73566;BME280;61846;52.970;-3.168;2023-08-31T07:52:20;99914.80;;;15.22;50.67
73566;BME280;61846;52.970;-3.168;2023-08-31T07:54:45;99913.00;;;15.82;49.87
73566;BME280;61846;52.970;-3.168;2023-08-31T07:57:11;99907.56;;;15.78;49.03
73566;BME280;61846;52.970;-3.168;2023-08-31T07:59:36;99907.56;;;16.07;48.60
73566;BME280;61846;52.970;-3.168;2023-08-31T08:02:02;99910.10;;;16.43;47.64
73566;BME280;61846;52.970;-3.168;2023-08-31T08:04:27;99910.06;;;15.67;49.53
73566;BME280;61846;52.970;-3.168;2023-08-31T08:06:53;99908.37;;;16.30;48.38
73566;BME280;61846;52.970;-3.168;2023-08-31T08:09:18;99909.65;;;15.44;50.35
73566;BME280;61846;52.970;-3.168;2023-08-31T08:11:44;99908.57;;;15.30;50.91
73566;BME280;61846;52.970;-3.168;2023-08-31T08:14:09;99906.65;;;15.51;50.53
73566;BME280;61846;52.970;-3.168;2023-08-31T08:16:34;99907.38;;;15.53;51.28
73566;BME280;61846;52.970;-3.168;2023-08-31T08:19:00;99906.89;;;14.44;53.89
73566;BME280;61846;52.970;-3.168;2023-08-31T08:21:25;99908.65;;;15.04;53.00
73566;BME280;61846;52.970;-3.168;2023-08-31T08:23:50;99908.26;;;15.74;51.93
73566;BME280;61846;52.970;-3.168;2023-08-31T08:26:16;99909.95;;;14.82;52.72
73566;BME280;61846;52.970;-3.168;2023-08-31T08:28:41;99907.95;;;15.28;52.84
73566;BME280;61846;52.970;-3.168;2023-08-31T08:31:07;99907.59;;;15.44;52.00
73566;BME280;61846;52.970;-3.168;2023-08-31T08:33:32;99904.24;;;16.56;49.45
73566;BME280;61846;52.970;-3.168;2023-08-31T08:35:58;99908.85;;;15.47;51.69
73566;BME280;61846;52.970;-3.168;2023-08-31T08:38:23;99909.08;;;16.71;49.54
73566;BME280;61846;52.970;-3.168;2023-08-31T08:40:48;99911.47;;;17.41;47.86
73566;BME280;61846;52.970;-3.168;2023-08-31T08:43:14;99908.50;;;17.08;48.63
73566;BME280;61846;52.970;-3.168;2023-08-31T08:45:39;99907.26;;;16.84;48.44
73566;BME280;61846;52.970;-3.168;2023-08-31T08:48:06;99908.88;;;16.85;48.02
73566;BME280;61846;52.970;-3.168;2023-08-31T08:50:31;99906.82;;;17.05;47.81
73566;BME280;61846;52.970;-3.168;2023-08-31T08:52:55;99906.67;;;16.60;48.38
73566;BME280;61846;52.970;-3.168;2023-08-31T08:55:21;99901.05;;;17.75;46.67
73566;BME280;61846;52.970;-3.168;2023-08-31T08:57:46;99902.67;;;17.10;47.02
73566;BME280;61846;52.970;-3.168;2023-08-31T09:00:12;99904.30;;;16.66;47.72
73566;BME280;61846;52.970;-3.168;2023-08-31T09:02:38;99898.67;;;17.51;46.56
73566;BME280;61846;52.970;-3.168;2023-08-31T09:05:02;99901.78;;;17.53;45.96
73566;BME280;61846;52.970;-3.168;2023-08-31T09:07:30;99902.64;;;17.73;45.42
73566;BME280;61846;52.970;-3.168;2023-08-31T09:09:54;99898.94;;;18.61;44.70
73566;BME280;61846;52.970;-3.168;2023-08-31T09:12:22;99904.02;;;18.20;44.43
73566;BME280;61846;52.970;-3.168;2023-08-31T09:14:58;99906.79;;;18.03;43.78
73566;BME280;61846;52.970;-3.168;2023-08-31T09:17:09;99907.66;;;18.68;42.30
73566;BME280;61846;52.970;-3.168;2023-08-31T09:19:35;99913.55;;;17.06;43.15
73566;BME280;61846;52.970;-3.168;2023-08-31T09:22:00;99913.41;;;16.50;44.27
73566;BME280;61846;52.970;-3.168;2023-08-31T09:24:25;99908.86;;;16.04;45.46
73566;BME280;61846;52.970;-3.168;2023-08-31T09:26:53;99905.63;;;17.26;43.42
73566;BME280;61846;52.970;-3.168;2023-08-31T09:29:16;99904.33;;;18.00;42.25
73566;BME280;61846;52.970;-3.168;2023-08-31T09:31:42;99897.79;;;17.98;42.13
73566;BME280;61846;52.970;-3.168;2023-08-31T09:34:07;99898.54;;;17.93;41.49
73566;BME280;61846;52.970;-3.168;2023-08-31T09:36:32;99885.95;;;18.53;41.24
73566;BME280;61846;52.970;-3.168;2023-08-31T09:38:58;99889.06;;;17.91;41.75
73566;BME280;61846;52.970;-3.168;2023-08-31T09:41:23;99887.19;;;18.75;40.06
73566;BME280;61846;52.970;-3.168;2023-08-31T09:43:49;99892.90;;;16.85;42.85
73566;BME280;61846;52.970;-3.168;2023-08-31T09:46:14;99883.76;;;17.84;41.60
73566;BME280;61846;52.970;-3.168;2023-08-31T09:48:40;99889.18;;;17.39;41.72
73566;BME280;61846;52.970;-3.168;2023-08-31T09:51:05;99891.78;;;15.88;44.57
73566;BME280;61846;52.970;-3.168;2023-08-31T09:53:31;99893.10;;;15.56;45.74
73566;BME280;61846;52.970;-3.168;2023-08-31T09:55:57;99896.63;;;15.79;45.22
73566;BME280;61846;52.970;-3.168;2023-08-31T09:58:21;99891.18;;;17.47;42.87
73566;BME280;61846;52.970;-3.168;2023-08-31T10:00:48;99884.69;;;18.29;44.74
73566;BME280;61846;52.970;-3.168;2023-08-31T10:03:12;99883.39;;;18.02;42.29
73566;BME280;61846;52.970;-3.168;2023-08-31T10:05:38;99895.37;;;17.38;42.71
73566;BME280;61846;52.970;-3.168;2023-08-31T10:08:03;99890.11;;;17.69;42.90
73566;BME280;61846;52.970;-3.168;2023-08-31T10:10:28;99881.77;;;17.92;41.45
73566;BME280;61846;52.970;-3.168;2023-08-31T10:12:54;99879.53;;;18.05;42.67
73566;BME280;61846;52.970;-3.168;2023-08-31T10:15:19;99863.35;;;18.98;41.85
73566;BME280;61846;52.970;-3.168;2023-08-31T10:17:45;99857.06;;;18.97;40.91
73566;BME280;61846;52.970;-3.168;2023-08-31T10:20:11;99859.23;;;18.52;40.41
73566;BME280;61846;52.970;-3.168;2023-08-31T10:22:36;99862.48;;;18.47;41.28
73566;BME280;61846;52.970;-3.168;2023-08-31T10:25:01;99862.64;;;18.73;40.39
73566;BME280;61846;52.970;-3.168;2023-08-31T10:27:26;99861.75;;;19.55;39.21
73566;BME280;61846;52.970;-3.168;2023-08-31T10:29:51;99865.04;;;19.22;39.24
73566;BME280;61846;52.970;-3.168;2023-08-31T10:32:17;99863.07;;;19.36;38.56
73566;BME280;61846;52.970;-3.168;2023-08-31T10:34:41;99864.71;;;18.57;39.25
73566;BME280;61846;52.970;-3.168;2023-08-31T10:37:19;99874.17;;;16.21;43.03
73566;BME280;61846;52.970;-3.168;2023-08-31T10:39:37;99871.56;;;16.85;42.35
73566;BME280;61846;52.970;-3.168;2023-08-31T10:42:00;99862.14;;;18.41;40.76
73566;BME280;61846;52.970;-3.168;2023-08-31T10:44:24;99856.88;;;18.16;40.28
73566;BME280;61846;52.970;-3.168;2023-08-31T10:46:49;99859.01;;;18.97;39.05
73566;BME280;61846;52.970;-3.168;2023-08-31T10:49:14;99864.12;;;19.47;38.72
73566;BME280;61846;52.970;-3.168;2023-08-31T10:51:40;99860.74;;;19.18;38.77
73566;BME280;61846;52.970;-3.168;2023-08-31T10:54:05;99867.21;;;19.37;39.21
73566;BME280;61846;52.970;-3.168;2023-08-31T10:56:30;99857.08;;;19.64;38.27
73566;BME280;61846;52.970;-3.168;2023-08-31T10:58:58;99849.76;;;19.94;37.38
73566;BME280;61846;52.970;-3.168;2023-08-31T11:03:58;99853.30;;;20.46;37.19
73566;BME280;61846;52.970;-3.168;2023-08-31T11:06:11;99847.26;;;18.25;39.05
73566;BME280;61846;52.970;-3.168;2023-08-31T11:08:36;99849.90;;;18.69;39.84
73566;BME280;61846;52.970;-3.168;2023-08-31T11:11:01;99859.45;;;17.99;40.88
73566;BME280;61846;52.970;-3.168;2023-08-31T11:13:27;99854.07;;;18.40;40.75
73566;BME280;61846;52.970;-3.168;2023-08-31T11:15:52;99850.78;;;19.61;39.58
73566;BME280;61846;52.970;-3.168;2023-08-31T11:18:20;99851.89;;;19.83;39.20
73566;BME280;61846;52.970;-3.168;2023-08-31T11:20:43;99857.40;;;18.43;40.62
73566;BME280;61846;52.970;-3.168;2023-08-31T11:23:08;99850.92;;;18.78;40.82
73566;BME280;61846;52.970;-3.168;2023-08-31T11:25:33;99847.47;;;19.09;40.32
73566;BME280;61846;52.970;-3.168;2023-08-31T11:28:00;99852.02;;;17.59;44.27
73566;BME280;61846;52.970;-3.168;2023-08-31T11:30:25;99845.31;;;19.19;43.30
73566;BME280;61846;52.970;-3.168;2023-08-31T11:32:51;99838.41;;;19.41;43.51
73566;BME280;61846;52.970;-3.168;2023-08-31T11:35:16;99837.11;;;18.28;45.58
73566;BME280;61846;52.970;-3.168;2023-08-31T11:37:41;99837.66;;;17.25;48.32
73566;BME280;61846;52.970;-3.168;2023-08-31T11:40:06;99842.49;;;17.85;47.05
73566;BME280;61846;52.970;-3.168;2023-08-31T11:42:31;99848.55;;;16.03;49.56
73566;BME280;61846;52.970;-3.168;2023-08-31T11:44:56;99847.71;;;18.67;44.83
73566;BME280;61846;52.970;-3.168;2023-08-31T11:47:22;99848.74;;;18.32;45.24
73566;BME280;61846;52.970;-3.168;2023-08-31T11:49:47;99849.12;;;18.49;46.01
73566;BME280;61846;52.970;-3.168;2023-08-31T11:52:13;99849.91;;;18.30;45.26
73566;BME280;61846;52.970;-3.168;2023-08-31T11:54:38;99852.66;;;17.24;48.71
73566;BME280;61846;52.970;-3.168;2023-08-31T11:57:03;99844.56;;;18.31;46.32
73566;BME280;61846;52.970;-3.168;2023-08-31T11:59:28;99839.89;;;18.87;46.20
73566;BME280;61846;52.970;-3.168;2023-08-31T12:01:56;99837.89;;;18.85;46.59
73566;BME280;61846;52.970;-3.168;2023-08-31T12:04:21;99833.18;;;19.34;46.16
73566;BME280;61846;52.970;-3.168;2023-08-31T12:06:46;99833.95;;;19.49;47.23
73566;BME280;61846;52.970;-3.168;2023-08-31T12:09:10;99837.01;;;19.47;47.56
73566;BME280;61846;52.970;-3.168;2023-08-31T12:11:35;99837.63;;;17.93;47.71
73566;BME280;61846;52.970;-3.168;2023-08-31T12:14:01;99836.46;;;18.94;47.09
73566;BME280;61846;52.970;-3.168;2023-08-31T12:16:32;99833.12;;;18.27;48.60
73566;BME280;61846;52.970;-3.168;2023-08-31T12:18:52;99829.70;;;19.21;47.84
73566;BME280;61846;52.970;-3.168;2023-08-31T12:21:19;99828.51;;;18.97;45.39
73566;BME280;61846;52.970;-3.168;2023-08-31T12:23:42;99833.71;;;18.22;47.40
73566;BME280;61846;52.970;-3.168;2023-08-31T12:26:07;99828.81;;;19.04;46.51
73566;BME280;61846;52.970;-3.168;2023-08-31T12:28:32;99822.26;;;18.53;47.08
73566;BME280;61846;52.970;-3.168;2023-08-31T12:30:58;99818.71;;;18.34;47.33
73566;BME280;61846;52.970;-3.168;2023-08-31T12:33:24;99816.73;;;19.28;47.32
73566;BME280;61846;52.970;-3.168;2023-08-31T12:35:49;99818.92;;;19.35;45.55
73566;BME280;61846;52.970;-3.168;2023-08-31T12:38:14;99826.96;;;18.99;46.85
73566;BME280;61846;52.970;-3.168;2023-08-31T12:40:40;99824.41;;;18.34;46.73